Time;durP1;ratioP1;P1;durP2;ratioP2;P2;SDS_P1;SDS_P2;PMS_P1;PMS_P2;Temp;Humidity;BMP_temperature;BMP_pressure;BME280_temperature;BME280_humidity;BME280_pressure;Samples;Min_cycle;Max_cycle;Signal;HPM_P1;HPM_P2
2023/07/25 00:00:08;;;;;;;13.65;7.63;;;;;;;14.79;100.00;99669.75;7401400;19;20484;-66
2023/07/25 00:02:39;;;;;;;15.57;6.75;;;;;;;14.80;100.00;99667.00;7400239;19;20495;-66
2023/07/25 00:05:09;;;;;;;16.35;6.85;;;;;;;14.82;100.00;99665.16;7399092;19;20022;-66
2023/07/25 00:07:37;;;;;;;12.88;6.82;;;;;;;14.83;100.00;99660.69;7398852;19;20023;-66
2023/07/25 00:10:07;;;;;;;13.07;6.45;;;;;;;14.84;100.00;99667.69;7401530;19;20035;-66
2023/07/25 00:12:37;;;;;;;10.85;5.95;;;;;;;14.83;100.00;99669.47;7399910;19;20014;-66
2023/07/25 00:15:06;;;;;;;16.90;6.15;;;;;;;14.82;100.00;99674.84;7401464;19;20022;-67
2023/07/25 00:17:35;;;;;;;10.50;5.75;;;;;;;14.81;100.00;99681.91;7399962;19;20371;-66
2023/07/25 00:20:07;;;;;;;11.68;6.70;;;;;;;14.80;100.00;99682.00;7400859;19;20011;-68
2023/07/25 00:22:36;;;;;;;12.30;6.20;;;;;;;14.79;100.00;99678.50;7400535;19;20018;-67
2023/07/25 00:25:04;;;;;;;11.73;6.47;;;;;;;14.79;100.00;99686.44;7398432;19;20022;-66
2023/07/25 00:27:33;;;;;;;15.45;6.50;;;;;;;14.78;100.00;99687.34;7400930;19;20022;-66
2023/07/25 00:30:02;;;;;;;13.32;6.78;;;;;;;14.78;100.00;99687.34;7400526;19;20012;-66
2023/07/25 00:32:30;;;;;;;13.85;6.13;;;;;;;14.79;100.00;99688.22;7399532;19;20032;-66
2023/07/25 00:34:59;;;;;;;14.32;7.25;;;;;;;14.80;100.00;99687.28;7398286;19;20015;-73
2023/07/25 00:37:30;;;;;;;15.02;6.40;;;;;;;14.79;100.00;99691.72;7400116;19;20035;-71
2023/07/25 00:40:05;;;;;;;13.15;7.15;;;;;;;14.81;100.00;99692.47;7398576;19;20011;-67
2023/07/25 00:42:33;;;;;;;9.93;6.10;;;;;;;14.79;100.00;99681.16;7399091;19;20070;-66
2023/07/25 00:45:02;;;;;;;9.35;6.25;;;;;;;14.80;100.00;99687.28;7400005;19;20510;-68
2023/07/25 00:47:30;;;;;;;10.35;6.60;;;;;;;14.80;100.00;99692.56;7400254;19;20041;-67
2023/07/25 00:50:00;;;;;;;9.45;6.30;;;;;;;14.81;100.00;99695.13;7400290;19;20035;-67
2023/07/25 00:52:31;;;;;;;10.77;6.43;;;;;;;14.83;100.00;99692.38;7398935;19;20023;-68
2023/07/25 00:54:59;;;;;;;13.63;6.80;;;;;;;14.83;100.00;99698.50;7400601;19;20023;-68
2023/07/25 00:57:28;;;;;;;10.25;6.47;;;;;;;14.85;100.00;99690.53;7402793;19;20028;-67
2023/07/25 00:59:56;;;;;;;11.52;7.13;;;;;;;14.87;100.00;99695.72;7401239;19;20025;-68
2023/07/25 01:02:25;;;;;;;14.55;7.40;;;;;;;14.88;100.00;99695.63;7399241;19;20022;-67
2023/07/25 01:04:54;;;;;;;16.55;8.55;;;;;;;14.90;100.00;99698.16;7399757;19;20023;-68
2023/07/25 01:07:23;;;;;;;12.13;6.57;;;;;;;14.90;100.00;99693.75;7397283;19;20019;-68
2023/07/25 01:09:54;;;;;;;9.82;6.72;;;;;;;14.90;100.00;99696.41;7399555;19;20022;-67
2023/07/25 01:12:24;;;;;;;14.95;8.13;;;;;;;14.89;100.00;99694.69;7398694;19;20023;-67
2023/07/25 01:14:52;;;;;;;18.90;7.85;;;;;;;14.88;100.00;99695.63;7400217;19;20015;-67
2023/07/25 01:17:24;;;;;;;13.40;6.97;;;;;;;14.88;100.00;99697.41;7399062;19;20026;-67
2023/07/25 01:19:54;;;;;;;11.70;6.93;;;;;;;14.86;100.00;99701.94;7399720;19;20026;-67
2023/07/25 01:22:24;;;;;;;8.18;6.35;;;;;;;14.84;100.00;99707.31;7398269;19;20027;-66
2023/07/25 01:24:57;;;;;;;12.07;7.07;;;;;;;14.80;100.00;99703.97;7396819;19;20022;-67
2023/07/25 01:27:26;;;;;;;10.07;7.10;;;;;;;14.78;100.00;99708.47;7399565;19;20018;-67
2023/07/25 01:29:54;;;;;;;9.48;7.07;;;;;;;14.77;100.00;99708.56;7398961;19;20031;-67
2023/07/25 01:32:22;;;;;;;10.00;7.57;;;;;;;14.75;100.00;99716.59;7396217;19;20019;-67
2023/07/25 01:34:51;;;;;;;8.25;7.05;;;;;;;14.73;100.00;99707.88;7398815;19;20031;-67
2023/07/25 01:37:19;;;;;;;8.90;7.20;;;;;;;14.71;100.00;99703.63;7398612;19;20026;-67
2023/07/25 01:39:54;;;;;;;9.38;7.22;;;;;;;14.70;100.00;99710.72;7396379;19;20018;-67
2023/07/25 01:42:25;;;;;;;11.77;7.60;;;;;;;14.69;100.00;99710.81;7397328;19;20442;-67
2023/07/25 01:44:54;;;;;;;14.18;7.28;;;;;;;14.67;100.00;99713.50;7398906;19;20031;-67
2023/07/25 01:47:25;;;;;;;13.85;7.97;;;;;;;14.68;100.00;99719.66;7397898;19;20513;-66
2023/07/25 01:49:54;;;;;;;11.13;8.38;;;;;;;14.67;100.00;99729.34;7398501;19;20085;-67
2023/07/25 01:52:22;;;;;;;9.98;7.50;;;;;;;14.68;100.00;99731.06;7396887;19;20481;-67
2023/07/25 01:54:52;;;;;;;9.98;8.52;;;;;;;14.69;100.00;99727.47;7398166;19;20031;-67
2023/07/25 01:57:20;;;;;;;13.73;8.40;;;;;;;14.70;100.00;99728.31;7396099;19;20022;-66
2023/07/25 01:59:51;;;;;;;11.85;8.75;;;;;;;14.71;100.00;99727.38;7394542;19;20010;-66
2023/07/25 02:02:20;;;;;;;12.48;8.45;;;;;;;14.70;100.00;99729.19;7396164;19;20025;-66
2023/07/25 02:04:49;;;;;;;12.25;8.57;;;;;;;14.70;100.00;99730.97;7397822;19;20056;-66
2023/07/25 02:07:17;;;;;;;10.30;8.00;;;;;;;14.69;100.00;99734.56;7397274;19;20015;-66
2023/07/25 02:09:46;;;;;;;10.65;8.73;;;;;;;14.66;100.00;99731.16;7397963;19;20014;-66
2023/07/25 02:12:14;;;;;;;15.48;9.00;;;;;;;14.64;100.00;99738.28;7400306;19;20018;-67
2023/07/25 02:14:43;;;;;;;12.05;8.27;;;;;;;14.62;100.00;99741.91;7401438;19;20014;-66
2023/07/25 02:17:14;;;;;;;16.90;8.82;;;;;;;14.58;100.00;99741.22;7396116;19;20015;-67
2023/07/25 02:19:42;;;;;;;13.60;8.88;;;;;;;14.56;100.00;99744.88;7395083;19;20376;-67
2023/07/25 02:22:11;;;;;;;13.52;8.95;;;;;;;14.54;100.00;99739.69;7396006;19;20031;-67
2023/07/25 02:24:39;;;;;;;15.05;8.80;;;;;;;14.53;100.00;99756.47;7395006;19;20371;-67
2023/07/25 02:27:08;;;;;;;15.07;9.57;;;;;;;14.50;100.00;99754.84;7396632;19;20489;-66
2023/07/25 02:29:37;;;;;;;14.43;9.48;;;;;;;14.51;100.00;99766.28;7396894;19;20019;-67
2023/07/25 02:32:06;;;;;;;12.20;9.60;;;;;;;14.49;100.00;99769.00;7396296;19;20094;-67
2023/07/25 02:34:37;;;;;;;16.02;9.65;;;;;;;14.48;100.00;99769.94;7396783;19;20014;-66
2023/07/25 02:37:05;;;;;;;13.40;10.10;;;;;;;14.48;100.00;99774.34;7394913;19;20019;-66
2023/07/25 02:39:34;;;;;;;18.35;10.60;;;;;;;14.47;100.00;99776.13;7394518;19;20268;-66
2023/07/25 02:42:02;;;;;;;14.60;10.27;;;;;;;14.47;100.00;99778.78;7396219;19;20031;-66
2023/07/25 02:44:31;;;;;;;17.77;10.00;;;;;;;14.48;100.00;99777.84;7396507;19;20074;-66
2023/07/25 02:46:59;;;;;;;14.68;10.18;;;;;;;14.46;100.00;99773.59;7395966;19;20022;-66
2023/07/25 02:49:28;;;;;;;17.13;10.25;;;;;;;14.48;100.00;99782.25;7396301;19;20026;-66
2023/07/25 02:51:59;;;;;;;14.82;10.63;;;;;;;14.48;100.00;99788.41;7395727;19;20423;-67
2023/07/25 02:54:27;;;;;;;16.95;11.10;;;;;;;14.50;100.00;99780.38;7396489;19;20427;-65
2023/07/25 02:56:56;;;;;;;14.05;10.38;;;;;;;14.50;100.00;99783.88;7395491;19;20035;-66
2023/07/25 02:59:24;;;;;;;16.48;10.90;;;;;;;14.53;100.00;99784.66;7394767;19;20022;-67
2023/07/25 03:01:53;;;;;;;15.77;10.27;;;;;;;14.53;100.00;99795.22;7393784;19;20450;-67
2023/07/25 03:04:21;;;;;;;12.05;9.75;;;;;;;14.54;100.00;99797.75;7395386;19;20031;-68
2023/07/25 03:06:49;;;;;;;16.38;10.85;;;;;;;14.55;100.00;99793.34;7394041;19;20014;-68
2023/07/25 03:09:20;;;;;;;15.32;10.32;;;;;;;14.55;100.00;99788.91;7395443;19;20019;-67
2023/07/25 03:11:49;;;;;;;17.17;10.45;;;;;;;14.57;100.00;99791.47;7391341;19;20026;-66
2023/07/25 03:14:17;;;;;;;17.00;10.38;;;;;;;14.57;100.00;99788.81;7395244;19;20079;-66
2023/07/25 03:16:46;;;;;;;15.15;11.15;;;;;;;14.57;100.00;99780.91;7395419;19;20037;-66
2023/07/25 03:19:14;;;;;;;17.77;11.20;;;;;;;14.55;100.00;99775.72;7394253;19;20081;-66
2023/07/25 03:21:43;;;;;;;15.50;10.55;;;;;;;14.54;100.00;99776.66;7394790;19;20021;-66
2023/07/25 03:24:11;;;;;;;14.48;11.15;;;;;;;14.55;100.00;99780.16;7393077;19;20477;-64
2023/07/25 03:26:42;;;;;;;15.00;11.77;;;;;;;14.55;100.00;99764.31;7394950;19;20027;-66
2023/07/25 03:29:11;;;;;;;17.17;11.77;;;;;;;14.55;100.00;99766.97;7394713;19;20015;-66
2023/07/25 03:31:39;;;;;;;16.67;11.77;;;;;;;14.56;100.00;99764.22;7394630;19;20019;-66
2023/07/25 03:34:08;;;;;;;18.73;12.00;;;;;;;14.58;100.00;99764.97;7394707;19;20018;-66
2023/07/25 03:36:36;;;;;;;18.70;11.70;;;;;;;14.59;100.00;99765.84;7394811;19;20418;-67
2023/07/25 03:39:05;;;;;;;16.98;12.57;;;;;;;14.61;100.00;99756.06;7392062;19;20035;-66
2023/07/25 03:41:33;;;;;;;21.27;12.02;;;;;;;14.61;100.00;99761.34;7395092;19;20078;-66
2023/07/25 03:44:05;;;;;;;17.63;11.73;;;;;;;14.60;100.00;99764.91;7395813;19;20011;-67
2023/07/25 03:46:33;;;;;;;14.48;12.55;;;;;;;14.60;100.00;99767.56;7393022;19;20015;-67
2023/07/25 03:49:02;;;;;;;18.65;12.95;;;;;;;14.59;100.00;99771.97;7394400;19;20015;-67
2023/07/25 03:51:30;;;;;;;18.25;12.02;;;;;;;14.58;100.00;99779.97;7394200;19;20014;-67
2023/07/25 03:53:59;;;;;;;17.05;12.60;;;;;;;14.58;100.00;99766.78;7394133;19;20003;-67
2023/07/25 03:56:27;;;;;;;14.68;11.45;;;;;;;14.56;100.00;99773.91;7393552;19;20023;-68
2023/07/25 03:58:56;;;;;;;20.95;11.90;;;;;;;14.56;100.00;99780.06;7392223;19;20074;-67
2023/07/25 04:01:27;;;;;;;17.42;11.93;;;;;;;14.57;100.00;99781.78;7394620;19;20086;-67
2023/07/25 04:03:55;;;;;;;17.17;11.48;;;;;;;14.59;100.00;99789.59;7394561;19;20031;-68
2023/07/25 04:06:24;;;;;;;15.50;11.77;;;;;;;14.59;100.00;99790.44;7392094;19;20010;-67
2023/07/25 04:08:52;;;;;;;14.57;11.63;;;;;;;14.61;100.00;99795.66;7394131;19;20019;-67
2023/07/25 04:11:21;;;;;;;14.75;11.48;;;;;;;14.63;100.00;99791.13;7393394;19;20077;-68
2023/07/25 04:13:50;;;;;;;17.50;11.55;;;;;;;14.66;100.00;99788.38;7394042;19;20017;-67
2023/07/25 04:16:18;;;;;;;19.88;11.57;;;;;;;14.68;100.00;99799.69;7393579;19;20414;-67
2023/07/25 04:18:49;;;;;;;16.27;11.18;;;;;;;14.71;100.00;99796.03;7393848;19;20024;-68
2023/07/25 04:21:18;;;;;;;18.90;12.70;;;;;;;14.73;100.00;99802.09;7391005;19;20371;-67
2023/07/25 04:23:46;;;;;;;15.45;11.70;;;;;;;14.75;100.00;99806.34;7398260;19;20010;-67
2023/07/25 04:26:15;;;;;;;21.65;11.27;;;;;;;14.77;100.00;99800.97;7401005;19;20014;-67
2023/07/25 04:28:43;;;;;;;15.77;10.75;;;;;;;14.77;100.00;99807.13;7400763;19;20032;-67
2023/07/25 04:31:12;;;;;;;16.42;10.93;;;;;;;14.79;100.00;99807.88;7400394;19;20014;-67
2023/07/25 04:33:40;;;;;;;13.27;10.15;;;;;;;14.80;100.00;99801.69;7399080;19;20026;-67
2023/07/25 04:36:11;;;;;;;14.10;9.52;;;;;;;14.82;100.00;99798.94;7396791;19;20501;-68
2023/07/25 04:38:40;;;;;;;14.10;9.98;;;;;;;14.82;100.00;99796.31;7399788;19;20010;-67
2023/07/25 04:41:08;;;;;;;12.40;9.40;;;;;;;14.82;100.00;99794.53;7397037;19;20374;-67
2023/07/25 04:43:37;;;;;;;16.17;9.63;;;;;;;14.83;100.00;99793.56;7396426;19;20028;-67
2023/07/25 04:46:05;;;;;;;11.52;9.30;;;;;;;14.84;100.00;99783.88;7399445;19;20014;-67
2023/07/25 04:48:34;;;;;;;18.75;8.82;;;;;;;14.83;100.00;99772.44;7399454;19;20014;-67
2023/07/25 04:51:02;;;;;;;17.38;9.80;;;;;;;14.87;100.00;99774.94;7397288;19;20028;-67
2023/07/25 04:53:33;;;;;;;11.00;9.90;;;;;;;14.89;100.00;99771.28;7396965;19;20429;-67
2023/07/25 04:56:02;;;;;;;16.45;10.63;;;;;;;14.91;100.00;99774.69;7399735;19;20007;-67
2023/07/25 04:58:31;;;;;;;13.80;9.57;;;;;;;14.94;100.00;99779.78;7398736;19;20039;-67
2023/07/25 05:00:59;;;;;;;10.60;9.45;;;;;;;14.96;100.00;99782.34;7398731;19;20015;-67
2023/07/25 05:03:28;;;;;;;12.13;7.50;;;;;;;14.97;100.00;99777.00;7395800;19;20015;-66
2023/07/25 05:05:58;;;;;;;13.80;7.90;;;;;;;15.01;100.00;99767.09;7398651;19;20010;-67
2023/07/25 05:08:26;;;;;;;12.65;7.70;;;;;;;15.04;100.00;99763.41;7397716;19;20006;-67
2023/07/25 05:10:57;;;;;;;9.90;7.72;;;;;;;15.03;100.00;99757.28;7397634;19;20194;-67
2023/07/25 05:13:26;;;;;;;9.82;8.02;;;;;;;15.02;100.00;99755.59;7395271;19;20019;-66
2023/07/25 05:15:54;;;;;;;12.25;7.90;;;;;;;15.04;100.00;99753.72;7397503;19;20078;-67
2023/07/25 05:18:23;;;;;;;14.40;7.70;;;;;;;15.05;100.00;99758.06;7395866;19;20010;-67
2023/07/25 05:20:51;;;;;;;14.32;10.05;;;;;;;15.10;100.00;99766.59;7395659;19;20022;-67
2023/07/25 05:23:19;;;;;;;9.38;7.63;;;;;;;15.14;100.00;99770.75;7395705;19;20545;-66
2023/07/25 05:25:49;;;;;;;19.10;8.60;;;;;;;15.18;100.00;99763.50;7398835;19;20078;-67
2023/07/25 05:28:20;;;;;;;9.27;7.95;;;;;;;15.22;100.00;99772.13;7395730;19;20023;-67
2023/07/25 05:30:49;;;;;;;9.63;6.53;;;;;;;15.22;98.08;99778.25;7397990;19;20480;-67
2023/07/25 05:33:17;;;;;;;11.63;6.28;;;;;;;15.22;98.60;99790.63;7396545;19;20014;-67
2023/07/25 05:35:46;;;;;;;8.65;6.70;;;;;;;15.20;98.44;99810.97;7396026;19;20085;-67
2023/07/25 05:38:14;;;;;;;10.57;6.85;;;;;;;15.18;99.00;99823.41;7397777;19;20481;-67
2023/07/25 05:40:56;;;;;;;11.18;6.88;;;;;;;15.18;98.05;99853.34;7394776;19;20082;-66
2023/07/25 05:43:27;;;;;;;7.20;5.47;;;;;;;15.18;98.98;99863.03;7395569;19;20525;-67
2023/07/25 05:45:56;;;;;;;9.23;6.15;;;;;;;15.20;98.18;99869.09;7398476;19;20261;-67
2023/07/25 05:48:24;;;;;;;8.40;5.45;;;;;;;15.20;97.76;99867.31;7398197;19;20014;-67
2023/07/25 05:50:53;;;;;;;13.30;5.60;;;;;;;15.21;96.48;99876.09;7398111;19;20541;-67
2023/07/25 05:53:22;;;;;;;10.00;4.97;;;;;;;15.20;95.61;99869.94;7395810;19;20017;-67
2023/07/25 05:55:51;;;;;;;8.40;4.80;;;;;;;15.24;95.69;99865.34;7397940;19;20015;-67
2023/07/25 05:58:20;;;;;;;11.63;4.93;;;;;;;15.25;95.26;99852.06;7397600;19;20082;-67
2023/07/25 06:00:52;;;;;;;9.98;5.05;;;;;;;15.26;94.35;99856.41;7395409;19;20019;-67
2023/07/25 06:03:21;;;;;;;7.95;4.82;;;;;;;15.25;94.29;99873.22;7395670;19;20018;-68
2023/07/25 06:05:50;;;;;;;6.03;4.97;;;;;;;15.25;95.41;99875.84;7396864;19;20023;-67
2023/07/25 06:08:18;;;;;;;7.97;4.95;;;;;;;15.27;94.97;99870.47;7397236;19;20010;-67
2023/07/25 06:10:47;;;;;;;9.63;4.53;;;;;;;15.29;94.75;99865.94;7397674;19;20039;-68
2023/07/25 06:13:15;;;;;;;6.22;4.60;;;;;;;15.31;94.25;99866.72;7395293;19;20010;-68
2023/07/25 06:15:44;;;;;;;6.28;4.05;;;;;;;15.32;92.57;99873.72;7397264;19;20018;-68
2023/07/25 06:18:15;;;;;;;5.93;3.25;;;;;;;15.38;93.16;99872.50;7396672;19;20015;-68
2023/07/25 06:20:44;;;;;;;6.18;3.47;;;;;;;15.47;91.68;99862.28;7395731;19;20018;-68
2023/07/25 06:23:12;;;;;;;6.53;3.47;;;;;;;15.54;88.84;99864.59;7396066;19;20086;-69
2023/07/25 06:25:42;;;;;;;8.45;3.45;;;;;;;15.60;89.33;99864.25;7397598;19;20031;-68
2023/07/25 06:28:14;;;;;;;8.45;3.95;;;;;;;15.68;89.91;99879.66;7398402;19;20473;-68
2023/07/25 06:30:43;;;;;;;8.32;3.63;;;;;;;15.74;89.62;99880.16;7395545;19;20074;-68
2023/07/25 06:33:12;;;;;;;7.43;4.35;;;;;;;15.74;86.97;99874.88;7395286;19;20015;-68
2023/07/25 06:35:43;;;;;;;9.73;3.78;;;;;;;15.78;88.53;99881.72;7396640;19;20010;-67
2023/07/25 06:38:12;;;;;;;7.63;3.53;;;;;;;15.80;88.59;99884.25;7396768;19;20074;-67
2023/07/25 06:40:53;;;;;;;6.97;3.58;;;;;;;15.78;88.01;99879.06;7394374;19;20086;-69
2023/07/25 06:43:21;;;;;;;7.63;3.15;;;;;;;15.85;87.69;99878.75;7394015;19;20024;-67
2023/07/25 06:45:52;;;;;;;7.03;3.17;;;;;;;15.91;86.76;99879.22;7395377;19;20086;-67
2023/07/25 06:48:20;;;;;;;6.53;3.33;;;;;;;15.97;86.51;99880.66;7395943;19;20037;-66
2023/07/25 06:50:51;;;;;;;7.65;3.50;;;;;;;16.04;86.28;99878.53;7393780;19;20084;-68
2023/07/25 06:53:20;;;;;;;6.25;3.90;;;;;;;16.08;86.05;99867.66;7394416;19;20014;-68
2023/07/25 06:55:49;;;;;;;9.68;3.95;;;;;;;16.11;85.67;99875.44;7395851;19;20495;-67
2023/07/25 06:58:17;;;;;;;8.80;3.40;;;;;;;16.11;84.46;99887.78;7395834;19;20014;-68
2023/07/25 07:00:48;;;;;;;5.90;3.28;;;;;;;16.08;84.25;99888.81;7394440;19;20057;-67
2023/07/25 07:03:16;;;;;;;6.63;2.97;;;;;;;16.07;84.90;99868.59;7394695;19;20015;-67
2023/07/25 07:05:56;;;;;;;11.48;3.78;;;;;;;16.07;83.90;99871.22;7395601;19;20011;-68
2023/07/25 07:08:25;;;;;;;9.45;3.28;;;;;;;16.06;84.01;99864.25;7393459;19;20010;-68
2023/07/25 07:10:55;;;;;;;5.22;3.50;;;;;;;16.03;81.83;99874.16;7395384;19;20371;-68
2023/07/25 07:13:24;;;;;;;6.93;3.30;;;;;;;16.04;83.19;99857.38;7393309;19;20030;-67
2023/07/25 07:15:53;;;;;;;7.30;3.55;;;;;;;16.06;82.71;99852.81;7394930;19;20078;-67
2023/07/25 07:18:21;;;;;;;10.57;3.60;;;;;;;16.12;82.62;99852.44;7395088;19;20011;-68
2023/07/25 07:20:51;;;;;;;5.32;3.28;;;;;;;16.16;82.18;99851.31;7393871;19;20031;-67
2023/07/25 07:23:22;;;;;;;7.32;3.20;;;;;;;16.20;82.23;99846.69;7392217;19;20006;-68
2023/07/25 07:25:53;;;;;;;6.68;3.20;;;;;;;16.22;79.87;99842.19;7392401;19;20070;-68
2023/07/25 07:28:21;;;;;;;6.03;3.70;;;;;;;16.29;81.02;99840.88;7393474;19;20015;-68
2023/07/25 07:30:54;;;;;;;4.93;3.00;;;;;;;16.33;79.28;99845.03;7393081;19;20086;-68
2023/07/25 07:33:22;;;;;;;4.85;2.78;;;;;;;16.41;80.76;99844.56;7391306;19;20010;-69
2023/07/25 07:35:51;;;;;;;14.02;4.15;;;;;;;16.44;80.10;99847.03;7392215;19;20090;-68
2023/07/25 07:38:22;;;;;;;9.98;3.28;;;;;;;16.49;79.77;99858.22;7393079;19;20014;-69
2023/07/25 07:40:50;;;;;;;6.03;3.05;;;;;;;16.54;79.60;99847.31;7391335;19;20098;-69
2023/07/25 07:43:19;;;;;;;6.15;3.15;;;;;;;16.61;79.53;99840.72;7391774;19;20015;-69
2023/07/25 07:45:48;;;;;;;6.53;3.38;;;;;;;16.68;80.01;99831.44;7394200;19;20014;-69
2023/07/25 07:48:16;;;;;;;9.65;3.10;;;;;;;16.76;78.90;99826.50;7394015;19;20023;-69
2023/07/25 07:50:46;;;;;;;7.22;3.20;;;;;;;16.80;78.21;99816.59;7394040;19;20031;-67
2023/07/25 07:53:14;;;;;;;5.07;2.80;;;;;;;16.83;78.27;99811.09;7391975;19;20014;-67
2023/07/25 07:55:45;;;;;;;5.43;2.53;;;;;;;16.87;78.17;99799.38;7393461;19;20010;-67
2023/07/25 07:58:14;;;;;;;6.30;2.80;;;;;;;16.91;77.11;99808.00;7396085;19;20078;-67
2023/07/25 08:00:42;;;;;;;4.65;2.13;;;;;;;16.87;76.36;99804.66;7399242;19;20018;-67
2023/07/25 08:03:10;;;;;;;6.22;2.65;;;;;;;16.82;76.35;99808.53;7397879;19;20011;-67
2023/07/25 08:05:39;;;;;;;6.15;2.78;;;;;;;16.74;76.02;99801.06;7400522;19;20022;-68
2023/07/25 08:08:08;;;;;;;9.95;3.10;;;;;;;16.72;76.33;99800.31;7400897;19;20407;-68
2023/07/25 08:10:37;;;;;;;6.97;2.63;;;;;;;16.74;76.67;99801.06;7400237;19;20006;-68
2023/07/25 08:13:08;;;;;;;4.55;2.67;;;;;;;16.80;76.79;99799.84;7398037;19;20485;-68
2023/07/25 08:15:37;;;;;;;3.95;2.40;;;;;;;16.89;77.01;99799.25;7401115;19;20019;-68
2023/07/25 08:18:05;;;;;;;4.40;2.50;;;;;;;17.02;76.76;99799.34;7400354;19;20074;-68
2023/07/25 08:20:34;;;;;;;8.02;3.28;;;;;;;17.10;76.48;99819.13;7399018;19;20010;-68
2023/07/25 08:23:03;;;;;;;5.90;2.65;;;;;;;17.16;76.14;99817.03;7398174;19;20010;-68
2023/07/25 08:25:32;;;;;;;5.93;3.13;;;;;;;17.17;76.01;99824.03;7399617;19;20086;-68
2023/07/25 08:28:00;;;;;;;9.25;3.58;;;;;;;17.07;70.81;99829.94;7400206;19;20033;-68
2023/07/25 08:30:31;;;;;;;8.70;2.55;;;;;;;17.08;73.14;99830.78;7400210;19;20018;-68
2023/07/25 08:33:00;;;;;;;4.25;2.95;;;;;;;17.10;73.93;99827.06;7398587;19;20027;-68
2023/07/25 08:35:29;;;;;;;12.18;3.42;;;;;;;17.16;73.80;99840.88;7400443;19;20007;-68
2023/07/25 08:37:57;;;;;;;6.88;2.53;;;;;;;17.18;74.30;99836.34;7400391;19;20022;-67
2023/07/25 08:40:26;;;;;;;6.72;3.00;;;;;;;17.22;74.20;99836.03;7398785;19;20086;-67
2023/07/25 08:42:59;;;;;;;5.88;2.88;;;;;;;17.28;73.58;99826.00;7398604;19;20078;-67
2023/07/25 08:45:31;;;;;;;6.23;2.43;;;;;;;17.29;70.50;99835.63;7400216;19;20011;-67
2023/07/25 08:48:05;;;;;;;3.83;2.40;;;;;;;17.30;70.94;99834.69;7397349;19;20463;-68
2023/07/25 08:50:34;;;;;;;5.18;2.47;;;;;;;17.37;71.33;99828.88;7400176;19;20066;-68
2023/07/25 08:53:07;;;;;;;6.07;2.13;;;;;;;17.45;71.06;99830.22;7398025;19;20039;-68
2023/07/25 08:55:35;;;;;;;4.45;2.30;;;;;;;17.49;70.79;99832.56;7400990;19;20095;-68
2023/07/25 08:58:04;;;;;;;5.70;2.45;;;;;;;17.57;71.32;99837.38;7399420;19;20078;-68
2023/07/25 09:00:36;;;;;;;7.68;2.17;;;;;;;17.67;69.74;99843.75;7398432;19;20106;-68
2023/07/25 09:03:05;;;;;;;4.25;2.00;;;;;;;17.80;70.15;99845.59;7396109;19;20014;-68
2023/07/25 09:05:34;;;;;;;7.90;2.00;;;;;;;17.90;69.39;99844.03;7398955;19;20035;-68
2023/07/25 09:08:03;;;;;;;6.85;2.13;;;;;;;17.98;65.94;99857.66;7399227;19;20073;-68
2023/07/25 09:10:31;;;;;;;4.63;2.03;;;;;;;18.05;67.97;99858.13;7395745;19;20007;-68
2023/07/25 09:13:00;;;;;;;5.00;1.70;;;;;;;18.08;67.96;99868.53;7396818;19;20018;-68
2023/07/25 09:15:28;;;;;;;8.32;2.10;;;;;;;18.16;67.78;99878.63;7398899;19;20027;-68
2023/07/25 09:18:00;;;;;;;6.00;2.53;;;;;;;18.24;67.21;99871.00;7398660;19;20082;-68
2023/07/25 09:20:29;;;;;;;4.07;2.20;;;;;;;18.34;66.98;99880.03;7398669;19;20062;-68
2023/07/25 09:22:57;;;;;;;5.45;1.80;;;;;;;18.42;66.24;99868.06;7396875;19;20371;-68
2023/07/25 09:25:28;;;;;;;3.53;1.80;;;;;;;18.51;65.78;99865.63;7398423;19;20028;-68
2023/07/25 09:27:57;;;;;;;5.13;1.90;;;;;;;18.61;65.26;99868.47;7396493;19;20394;-68
2023/07/25 09:30:30;;;;;;;3.60;1.92;;;;;;;18.68;63.98;99864.44;7398650;19;20038;-68
2023/07/25 09:33:01;;;;;;;4.90;1.90;;;;;;;18.72;62.85;99870.38;7396891;19;20017;-68
2023/07/25 09:35:30;;;;;;;4.55;1.80;;;;;;;18.73;64.45;99864.97;7398208;19;20512;-68
2023/07/25 09:37:58;;;;;;;5.07;1.70;;;;;;;18.83;64.54;99866.97;7398877;19;20021;-68
2023/07/25 09:40:27;;;;;;;4.22;1.52;;;;;;;18.91;63.18;99862.00;7397441;19;20018;-68
2023/07/25 09:42:55;;;;;;;4.85;1.55;;;;;;;18.99;63.70;99858.78;7397718;19;20018;-69
2023/07/25 09:45:24;;;;;;;3.35;1.67;;;;;;;19.09;63.45;99859.00;7397597;19;20033;-68
2023/07/25 09:47:55;;;;;;;2.63;1.50;;;;;;;19.19;62.57;99868.84;7397245;19;20074;-68
2023/07/25 09:50:29;;;;;;;5.40;1.65;;;;;;;19.29;59.80;99854.91;7397156;19;20079;-69
2023/07/25 09:52:57;;;;;;;4.22;1.50;;;;;;;19.34;61.01;99853.59;7395957;19;20019;-68
2023/07/25 09:55:26;;;;;;;4.60;1.90;;;;;;;19.39;60.78;99849.78;7397467;19;20003;-68
2023/07/25 09:57:55;;;;;;;8.65;1.70;;;;;;;19.47;59.48;99858.03;7396832;19;20352;-68
2023/07/25 10:00:23;;;;;;;2.67;1.20;;;;;;;19.54;58.90;99848.63;7397903;19;20022;-68
2023/07/25 10:02:53;;;;;;;2.95;1.23;;;;;;;19.61;59.02;99844.53;7396478;19;20039;-68
2023/07/25 10:05:22;;;;;;;5.50;1.90;;;;;;;19.68;58.87;99840.47;7395027;19;20018;-67
2023/07/25 10:07:55;;;;;;;3.78;1.73;;;;;;;19.77;58.53;99840.75;7395423;19;20038;-71
2023/07/25 10:10:24;;;;;;;4.78;1.70;;;;;;;19.87;58.71;99849.78;7396942;19;20018;-67
2023/07/25 10:12:53;;;;;;;2.75;1.70;;;;;;;19.97;58.63;99840.13;7395015;19;20027;-66
2023/07/25 10:15:22;;;;;;;4.45;1.55;;;;;;;20.05;58.21;99836.88;7397759;19;20112;-67
2023/07/25 10:17:50;;;;;;;3.72;1.88;;;;;;;20.15;57.89;99834.38;7397172;19;20015;-66
2023/07/25 10:20:24;;;;;;;3.25;1.60;;;;;;;20.18;55.95;99839.44;7395464;19;20006;-67
2023/07/25 10:22:55;;;;;;;4.22;1.73;;;;;;;20.23;57.47;99837.28;7395008;19;20449;-67
2023/07/25 10:25:29;;;;;;;3.17;1.70;;;;;;;20.25;56.19;99845.19;7394323;19;20364;-67
2023/07/25 10:28:01;;;;;;;4.53;1.88;;;;;;;20.26;56.63;99847.72;7396459;19;20028;-68
2023/07/25 10:30:31;;;;;;;3.47;1.63;;;;;;;20.26;57.07;99833.56;7394242;19;20544;-67
2023/07/25 10:33:02;;;;;;;2.55;1.88;;;;;;;20.26;57.08;99828.25;7394285;19;20033;-67
2023/07/25 10:35:49;;;;;;;6.30;1.90;;;;;;;20.31;56.53;99828.72;7396933;19;20034;-68
2023/07/25 10:38:31;;;;;;;4.80;2.10;;;;;;;20.40;57.16;99835.16;7395967;19;20083;-66
2023/07/25 10:41:01;;;;;;;4.32;2.17;;;;;;;20.48;56.87;99835.41;7393825;19;20435;-67
2023/07/25 10:43:31;;;;;;;5.25;2.00;;;;;;;20.54;55.93;99829.59;7394333;19;20014;-67
2023/07/25 10:46:04;;;;;;;5.75;2.00;;;;;;;20.48;54.73;99824.75;7396192;19;20024;-66
2023/07/25 10:48:38;;;;;;;3.58;2.05;;;;;;;20.42;54.70;99834.06;7396438;19;20065;-67
2023/07/25 10:51:09;;;;;;;6.72;2.60;;;;;;;20.37;55.58;99830.06;7395824;19;20089;-67
2023/07/25 10:53:40;;;;;;;5.57;1.75;;;;;;;20.31;54.90;99828.72;7393884;19;20074;-66
2023/07/25 10:56:19;;;;;;;4.65;1.70;;;;;;;20.24;54.78;99838.16;7395409;19;20477;-67
2023/07/25 10:59:09;;;;;;;3.17;1.65;;;;;;;20.10;53.52;99839.22;7395697;19;20014;-66
2023/07/25 11:01:46;;;;;;;2.95;2.05;;;;;;;19.99;54.81;99819.59;7395030;19;20070;-66
2023/07/25 11:04:41;;;;;;;6.57;2.63;;;;;;;19.83;54.85;99825.22;7394241;19;20025;-66
2023/07/25 11:07:13;;;;;;;4.13;2.30;;;;;;;19.78;56.98;99818.50;7391559;19;20073;-66
2023/07/25 11:09:46;;;;;;;3.60;2.03;;;;;;;19.67;55.65;99820.13;7395905;19;20019;-66
2023/07/25 11:12:15;;;;;;;3.55;1.80;;;;;;;19.57;56.78;99805.84;7393675;19;20018;-68
2023/07/25 11:14:45;;;;;;;2.97;2.00;;;;;;;19.48;57.56;99806.53;7395066;19;20074;-66
2023/07/25 11:17:14;;;;;;;3.92;2.38;;;;;;;19.40;57.97;99808.88;7393400;19;20017;-66
2023/07/25 11:19:43;;;;;;;3.75;1.98;;;;;;;19.35;57.77;99807.44;7396068;19;20015;-66
2023/07/25 11:22:13;;;;;;;3.92;2.35;;;;;;;19.34;58.25;99820.84;7392843;19;20469;-67
2023/07/25 11:24:48;;;;;;;5.90;2.72;;;;;;;19.31;57.77;99811.28;7394330;19;20477;-67
2023/07/25 11:27:17;;;;;;;4.93;2.25;;;;;;;19.29;58.61;99812.34;7395093;19;20024;-67
2023/07/25 11:29:45;;;;;;;5.63;2.38;;;;;;;19.31;58.99;99813.06;7392856;19;20031;-67
2023/07/25 11:32:14;;;;;;;4.60;2.20;;;;;;;19.33;58.79;99806.69;7393775;19;20038;-67
2023/07/25 11:34:50;;;;;;;4.30;2.20;;;;;;;19.34;59.08;99803.06;7401668;19;20018;-66